createdAt,value
2022-12-11T00:00:12.029Z,0.74
2022-12-11T00:02:38.894Z,0.71
2022-12-11T00:05:06.021Z,0.71
2022-12-11T00:07:32.920Z,0.70
2022-12-11T00:09:59.849Z,0.69
2022-12-11T00:12:27.644Z,0.67
2022-12-11T00:14:54.481Z,0.66
2022-12-11T00:17:21.269Z,0.66
2022-12-11T00:19:48.179Z,0.63
2022-12-11T00:22:15.503Z,0.60
2022-12-11T00:24:42.305Z,0.60
2022-12-11T00:27:09.115Z,0.57
2022-12-11T00:29:36.483Z,0.58
2022-12-11T00:32:03.380Z,0.58
2022-12-11T00:34:30.373Z,0.57
2022-12-11T00:36:58.211Z,0.56
2022-12-11T00:39:25.133Z,0.56
2022-12-11T00:41:51.974Z,0.55
2022-12-11T00:44:18.787Z,0.53
2022-12-11T00:46:45.608Z,0.54
2022-12-11T00:49:12.425Z,0.56
2022-12-11T00:51:39.995Z,0.56
2022-12-11T00:54:06.809Z,0.56
2022-12-11T00:56:33.878Z,0.58
2022-12-11T00:59:00.653Z,0.58
2022-12-11T01:01:27.562Z,0.58
2022-12-11T01:03:54.526Z,0.59
2022-12-11T01:06:24.926Z,0.58
2022-12-11T01:08:52.255Z,0.54
2022-12-11T01:11:19.153Z,0.53
2022-12-11T01:13:46.065Z,0.52
2022-12-11T01:16:17.110Z,0.50
2022-12-11T01:18:44.336Z,0.51
2022-12-11T01:21:13.554Z,0.50
2022-12-11T01:23:40.685Z,0.48
2022-12-11T01:26:10.295Z,0.47
2022-12-11T01:28:37.969Z,0.45
2022-12-11T01:31:11.663Z,0.44
2022-12-11T01:33:39.356Z,0.40
2022-12-11T01:36:32.416Z,0.37
2022-12-11T01:38:59.177Z,0.34
2022-12-11T01:41:26.065Z,0.32
2022-12-11T01:43:56.876Z,0.30
2022-12-11T01:46:24.361Z,0.28
2022-12-11T01:48:52.087Z,0.27
2022-12-11T01:51:18.987Z,0.27
2022-12-11T01:53:54.830Z,0.27
2022-12-11T01:56:21.853Z,0.26
2022-12-11T01:58:56.307Z,0.25
2022-12-11T02:01:33.058Z,0.27
2022-12-11T02:04:01.291Z,0.29
2022-12-11T02:06:35.839Z,0.29
2022-12-11T02:09:05.555Z,0.28
2022-12-11T02:11:47.932Z,0.30
2022-12-11T02:14:27.933Z,0.30
2022-12-11T02:17:06.762Z,0.30
2022-12-11T02:20:10.871Z,0.30
2022-12-11T02:22:54.120Z,0.30
2022-12-11T02:25:51.960Z,0.31
2022-12-11T02:28:30.330Z,0.32
2022-12-11T02:31:38.882Z,0.32
2022-12-11T02:34:28.807Z,0.29
2022-12-11T02:37:00.801Z,0.27
2022-12-11T02:39:29.530Z,0.24
2022-12-11T02:41:56.993Z,0.22
2022-12-11T02:44:28.386Z,0.21
2022-12-11T02:46:56.584Z,0.21
2022-12-11T02:49:26.196Z,0.17
2022-12-11T02:51:54.925Z,0.17
2022-12-11T02:54:27.467Z,0.17
2022-12-11T02:57:04.042Z,0.17
2022-12-11T02:59:38.170Z,0.17
2022-12-11T03:02:05.802Z,0.17
2022-12-11T03:04:35.723Z,0.16
2022-12-11T03:07:14.176Z,0.13
2022-12-11T03:09:44.232Z,0.14
2022-12-11T03:12:19.156Z,0.13
2022-12-11T03:14:46.735Z,0.15
2022-12-11T03:17:24.144Z,0.18
2022-12-11T03:20:05.826Z,0.23
2022-12-11T03:22:41.435Z,0.24
2022-12-11T03:25:18.006Z,0.27
2022-12-11T03:27:50.676Z,0.30
2022-12-11T03:30:20.901Z,0.35
2022-12-11T03:32:56.235Z,0.36
2022-12-11T03:35:34.938Z,0.37
2022-12-11T03:38:06.997Z,0.36
2022-12-11T03:40:37.018Z,0.35
2022-12-11T03:43:06.729Z,0.35
2022-12-11T03:45:34.928Z,0.35
2022-12-11T03:48:03.354Z,0.34
2022-12-11T03:50:34.168Z,0.32
2022-12-11T03:53:03.411Z,0.30
2022-12-11T03:55:33.034Z,0.30
2022-12-11T03:57:59.802Z,0.28
2022-12-11T04:00:26.772Z,0.28
2022-12-11T04:02:53.675Z,0.27
2022-12-11T04:05:20.520Z,0.24
2022-12-11T04:07:47.316Z,0.23
2022-12-11T04:10:14.220Z,0.23
2022-12-11T04:12:40.982Z,0.20
2022-12-11T04:15:08.157Z,0.17
2022-12-11T04:17:37.042Z,0.16
2022-12-11T04:20:06.363Z,0.14
2022-12-11T04:22:33.193Z,0.14
2022-12-11T04:25:01.361Z,0.13
2022-12-11T04:27:28.331Z,0.08
2022-12-11T04:29:55.164Z,0.04
2022-12-11T04:32:21.892Z,-0.01
2022-12-11T04:34:48.919Z,-0.06
2022-12-11T04:37:15.661Z,-0.10
2022-12-11T04:39:42.485Z,-0.13
2022-12-11T04:42:09.275Z,-0.19
2022-12-11T04:44:36.003Z,-0.24
2022-12-11T04:47:02.946Z,-0.23
2022-12-11T04:49:29.722Z,-0.26
2022-12-11T04:51:56.569Z,-0.25
2022-12-11T04:54:23.395Z,-0.25
2022-12-11T04:56:50.235Z,-0.29
2022-12-11T04:59:17.020Z,-0.30
2022-12-11T05:01:43.867Z,-0.34
2022-12-11T05:04:10.625Z,-0.39
2022-12-11T05:06:37.394Z,-0.46
2022-12-11T05:09:04.282Z,-0.51
2022-12-11T05:11:31.247Z,-0.57
2022-12-11T05:13:58.036Z,-0.61
2022-12-11T05:16:25.044Z,-0.68
2022-12-11T05:18:51.829Z,-0.71
2022-12-11T05:21:18.619Z,-0.74
2022-12-11T05:23:45.430Z,-0.70
2022-12-11T05:26:17.327Z,-0.77
2022-12-11T05:28:44.801Z,-0.78
2022-12-11T05:31:17.743Z,-0.82
2022-12-11T05:33:45.866Z,-0.83
2022-12-11T05:36:16.543Z,-0.83
2022-12-11T05:38:43.495Z,-0.83
2022-12-11T05:41:13.858Z,-0.83
2022-12-11T05:43:41.050Z,-0.81
2022-12-11T05:46:10.441Z,-0.77
2022-12-11T05:48:38.366Z,-0.77
2022-12-11T05:51:06.781Z,-0.77
2022-12-11T05:53:34.030Z,-0.75
2022-12-11T05:56:06.120Z,-0.73
2022-12-11T05:58:34.529Z,-0.73
2022-12-11T06:01:02.051Z,-0.71
2022-12-11T06:03:28.887Z,-0.70
2022-12-11T06:05:55.630Z,-0.70
2022-12-11T06:08:22.705Z,-0.69
2022-12-11T06:10:50.541Z,-0.68
2022-12-11T06:13:17.476Z,-0.68
2022-12-11T06:15:44.320Z,-0.63
2022-12-11T06:18:11.297Z,-0.63
2022-12-11T06:20:38.563Z,-0.61
2022-12-11T06:23:05.291Z,-0.60
2022-12-11T06:25:32.345Z,-0.60
2022-12-11T06:27:59.187Z,-0.58
2022-12-11T06:30:39.225Z,-0.54
2022-12-11T06:33:07.008Z,-0.54
2022-12-11T06:35:40.064Z,-0.50
2022-12-11T06:38:09.728Z,-0.50
2022-12-11T06:40:36.465Z,-0.48
2022-12-11T06:43:03.236Z,-0.45
2022-12-11T06:45:30.232Z,-0.43
2022-12-11T06:47:57.040Z,-0.43
2022-12-11T06:50:24.081Z,-0.42
2022-12-11T06:52:50.881Z,-0.40
2022-12-11T06:55:17.649Z,-0.35
2022-12-11T06:57:44.608Z,-0.38
2022-12-11T07:00:12.042Z,-0.39
2022-12-11T07:02:38.832Z,-0.39
2022-12-11T07:05:06.018Z,-0.39
2022-12-11T07:07:33.157Z,-0.40
2022-12-11T07:10:07.309Z,-0.40
2022-12-11T07:12:35.512Z,-0.41
2022-12-11T07:15:02.462Z,-0.36
2022-12-11T07:17:29.819Z,-0.40
2022-12-11T07:19:56.670Z,-0.40
2022-12-11T07:22:23.693Z,-0.42
2022-12-11T07:24:50.531Z,-0.41
2022-12-11T07:27:17.360Z,-0.43
2022-12-11T07:29:44.183Z,-0.42
2022-12-11T07:32:11.068Z,-0.43
2022-12-11T07:34:38.262Z,-0.44
2022-12-11T07:37:05.205Z,-0.45
2022-12-11T07:39:31.977Z,-0.43
2022-12-11T07:41:58.814Z,-0.41
2022-12-11T07:44:25.605Z,-0.40
2022-12-11T07:46:52.507Z,-0.40
2022-12-11T07:49:19.297Z,-0.40
2022-12-11T07:51:46.094Z,-0.38
2022-12-11T07:54:14.516Z,-0.35
2022-12-11T07:56:43.890Z,-0.35
2022-12-11T07:59:11.528Z,-0.36
2022-12-11T08:01:39.467Z,-0.34
2022-12-11T08:04:08.037Z,-0.36
2022-12-11T08:06:37.090Z,-0.37
2022-12-11T08:09:07.251Z,-0.37
2022-12-11T08:11:34.334Z,-0.37
2022-12-11T08:14:01.959Z,-0.37
2022-12-11T08:16:29.574Z,-0.35
2022-12-11T08:18:56.448Z,-0.35
2022-12-11T08:21:26.293Z,-0.36
2022-12-11T08:23:54.188Z,-0.35
2022-12-11T08:26:25.701Z,-0.33
2022-12-11T08:28:56.413Z,-0.36
2022-12-11T08:31:25.287Z,-0.36
2022-12-11T08:33:52.608Z,-0.34
2022-12-11T08:36:21.763Z,-0.32
2022-12-11T08:38:49.992Z,-0.30
2022-12-11T08:41:20.104Z,-0.30
2022-12-11T08:43:47.362Z,-0.29
2022-12-11T08:46:15.170Z,-0.24
2022-12-11T08:48:43.186Z,-0.21
2022-12-11T08:51:15.136Z,-0.16
2022-12-11T08:53:41.985Z,-0.14
2022-12-11T08:56:14.266Z,-0.12
2022-12-11T08:58:41.166Z,-0.09
2022-12-11T09:01:10.397Z,-0.09
2022-12-11T09:03:38.639Z,-0.09
2022-12-11T09:06:10.587Z,-0.08
2022-12-11T09:08:37.877Z,-0.04
2022-12-11T09:11:07.548Z,-0.04
2022-12-11T09:13:34.614Z,-0.04
2022-12-11T09:16:08.011Z,-0.02
2022-12-11T09:18:35.473Z,0.01
2022-12-11T09:21:04.878Z,0.01
2022-12-11T09:23:32.420Z,0.04
2022-12-11T09:25:59.740Z,0.04
2022-12-11T09:28:26.581Z,0.02
2022-12-11T09:30:53.427Z,0.01
2022-12-11T09:33:20.339Z,-0.02
2022-12-11T09:35:56.441Z,-0.04
2022-12-11T09:38:23.253Z,-0.03
2022-12-11T09:40:49.972Z,0.01
2022-12-11T09:43:31.875Z,0.04
2022-12-11T09:46:03.159Z,0.06
2022-12-11T09:48:33.866Z,0.08
2022-12-11T09:51:10.515Z,0.08
2022-12-11T09:53:37.432Z,0.10
2022-12-11T09:56:09.989Z,0.10
2022-12-11T09:58:48.671Z,0.11
2022-12-11T10:01:26.295Z,0.14
2022-12-11T10:04:07.413Z,0.29
2022-12-11T10:07:02.975Z,0.41
2022-12-11T10:10:02.380Z,0.57
2022-12-11T10:13:06.354Z,0.40
2022-12-11T10:15:57.497Z,0.36
2022-12-11T10:18:26.293Z,0.36
2022-12-11T10:20:54.275Z,0.32
2022-12-11T10:23:52.358Z,0.38
2022-12-11T10:26:22.502Z,0.45
2022-12-11T10:28:49.931Z,0.42
2022-12-11T10:31:20.850Z,0.43
2022-12-11T10:34:00.996Z,0.45
2022-12-11T10:36:35.349Z,0.43
2022-12-11T10:39:03.607Z,0.43
2022-12-11T10:41:46.192Z,0.43
2022-12-11T10:44:27.418Z,0.38
2022-12-11T10:47:03.139Z,0.39
2022-12-11T10:49:32.084Z,0.38
2022-12-11T10:51:59.909Z,0.33
2022-12-11T10:54:40.440Z,0.28
2022-12-11T10:57:10.320Z,0.27
2022-12-11T10:59:39.270Z,0.23
2022-12-11T11:02:16.667Z,0.26
2022-12-11T11:04:44.764Z,0.29
2022-12-11T11:07:19.820Z,0.27
2022-12-11T11:09:46.943Z,0.25
2022-12-11T11:12:23.345Z,0.21
2022-12-11T11:15:15.144Z,0.24
2022-12-11T11:17:55.795Z,0.23
2022-12-11T11:20:28.724Z,0.21
2022-12-11T11:23:04.643Z,0.18
2022-12-11T11:25:33.412Z,0.18
2022-12-11T11:28:06.659Z,0.11
2022-12-11T11:30:41.975Z,0.09
2022-12-11T11:33:19.959Z,0.05
2022-12-11T11:36:26.535Z,0.01
2022-12-11T11:39:28.615Z,-0.01
2022-12-11T11:42:24.294Z,-0.02
2022-12-11T11:44:57.468Z,-0.02
2022-12-11T11:47:28.617Z,-0.04
2022-12-11T11:50:14.944Z,-0.06
2022-12-11T11:53:01.420Z,-0.05
2022-12-11T11:55:44.294Z,-0.05
2022-12-11T11:58:22.027Z,-0.04
2022-12-11T12:00:50.515Z,-0.02
2022-12-11T12:03:21.495Z,0.02
2022-12-11T12:06:02.847Z,0.05
2022-12-11T12:08:45.168Z,0.07
2022-12-11T12:11:20.196Z,0.08
2022-12-11T12:14:50.673Z,0.13
2022-12-11T12:17:21.702Z,0.11
2022-12-11T12:20:09.591Z,0.09
2022-12-11T12:22:36.521Z,0.10
2022-12-11T12:25:30.383Z,0.07
2022-12-11T12:28:18.322Z,0.09
2022-12-11T12:31:10.210Z,0.09
2022-12-11T12:33:46.921Z,0.01
2022-12-11T12:36:35.010Z,-0.02
2022-12-11T12:39:13.979Z,-0.03
2022-12-11T12:41:52.986Z,-0.02
2022-12-11T12:44:24.660Z,-0.06
2022-12-11T12:47:04.109Z,-0.08
2022-12-11T12:49:37.241Z,-0.11
2022-12-11T12:52:06.680Z,-0.12
2022-12-11T12:54:35.984Z,-0.11
2022-12-11T12:57:05.191Z,-0.08
2022-12-11T12:59:32.219Z,-0.07
2022-12-11T13:02:02.714Z,-0.09
2022-12-11T13:04:59.182Z,-0.09
2022-12-11T13:07:30.395Z,-0.08
2022-12-11T13:10:01.285Z,-0.07
2022-12-11T13:12:47.869Z,-0.07
2022-12-11T13:15:32.468Z,-0.08
2022-12-11T13:18:01.137Z,-0.13
2022-12-11T13:20:33.696Z,-0.13
2022-12-11T13:23:00.718Z,-0.15
2022-12-11T13:25:31.236Z,-0.16
2022-12-11T13:28:21.675Z,-0.20
2022-12-11T13:31:21.241Z,-0.28
2022-12-11T13:33:58.509Z,-0.31
2022-12-11T13:36:33.957Z,-0.34
2022-12-11T13:39:16.449Z,-0.38
2022-12-11T13:41:48.189Z,-0.38
2022-12-11T13:44:28.520Z,-0.39
2022-12-11T13:46:59.045Z,-0.40
2022-12-11T13:49:32.751Z,-0.42
2022-12-11T13:52:01.501Z,-0.46
2022-12-11T13:54:30.238Z,-0.42
2022-12-11T13:57:07.528Z,-0.42
2022-12-11T13:59:37.360Z,-0.42
2022-12-11T14:02:15.511Z,-0.45
2022-12-11T14:04:43.240Z,-0.49
2022-12-11T14:07:11.828Z,-0.53
2022-12-11T14:09:44.366Z,-0.53
2022-12-11T14:12:18.400Z,-0.56
2022-12-11T14:14:57.096Z,-0.59
2022-12-11T14:17:27.121Z,-0.60
2022-12-11T14:19:56.141Z,-0.62
2022-12-11T14:22:26.080Z,-0.61
2022-12-11T14:24:59.085Z,-0.62
2022-12-11T14:27:27.664Z,-0.65
2022-12-11T14:29:55.114Z,-0.68
2022-12-11T14:32:33.000Z,-0.69
2022-12-11T14:35:02.658Z,-0.74
2022-12-11T14:37:29.760Z,-0.77
2022-12-11T14:40:04.806Z,-0.79
2022-12-11T14:42:37.054Z,-0.80
2022-12-11T14:45:21.414Z,-0.81
2022-12-11T14:47:49.056Z,-0.82
2022-12-11T14:50:21.417Z,-0.79
2022-12-11T14:52:53.514Z,-0.81
2022-12-11T14:55:25.245Z,-0.80
2022-12-11T14:57:57.213Z,-0.80
2022-12-11T15:00:30.693Z,-0.78
2022-12-11T15:03:22.314Z,-0.79
2022-12-11T15:05:58.998Z,-0.83
2022-12-11T15:08:32.314Z,-0.84
2022-12-11T15:11:17.077Z,-0.84
2022-12-11T15:13:54.981Z,-0.83
2022-12-11T15:16:24.381Z,-0.84
2022-12-11T15:18:53.637Z,-0.83
2022-12-11T15:21:29.740Z,-0.84
2022-12-11T15:23:59.193Z,-0.84
2022-12-11T15:26:38.322Z,-0.82
2022-12-11T15:29:23.896Z,-0.82
2022-12-11T15:32:02.464Z,-0.81
2022-12-11T15:34:35.333Z,-0.86
2022-12-11T15:37:02.448Z,-0.85
2022-12-11T15:39:29.273Z,-0.84
2022-12-11T15:41:56.535Z,-0.87
2022-12-11T15:44:23.494Z,-0.85
2022-12-11T15:46:51.955Z,-0.86
2022-12-11T15:49:18.891Z,-0.87
2022-12-11T15:51:46.493Z,-0.90
2022-12-11T15:54:13.336Z,-0.92
2022-12-11T15:56:40.469Z,-0.97
2022-12-11T15:59:07.856Z,-1.01
2022-12-11T16:01:35.169Z,-1.03
2022-12-11T16:04:05.074Z,-1.04
2022-12-11T16:06:32.739Z,-1.05
2022-12-11T16:08:59.574Z,-1.06
2022-12-11T16:11:26.880Z,-1.08
2022-12-11T16:13:54.138Z,-1.11
2022-12-11T16:16:21.186Z,-1.10
2022-12-11T16:18:50.989Z,-1.09
2022-12-11T16:21:21.376Z,-1.09
2022-12-11T16:23:48.857Z,-1.11
2022-12-11T16:26:15.943Z,-1.14
2022-12-11T16:28:44.927Z,-1.17
2022-12-11T16:31:13.553Z,-1.18
2022-12-11T16:33:42.341Z,-1.20
2022-12-11T16:36:17.858Z,-1.18
2022-12-11T16:38:52.937Z,-1.22
2022-12-11T16:41:21.471Z,-1.22
2022-12-11T16:43:49.232Z,-1.23
2022-12-11T16:46:20.759Z,-1.22
2022-12-11T16:48:48.499Z,-1.21
2022-12-11T16:51:16.867Z,-1.18
2022-12-11T16:53:44.486Z,-1.15
2022-12-11T16:56:12.037Z,-1.15
2022-12-11T16:58:39.354Z,-1.16
2022-12-11T17:01:11.577Z,-1.14
2022-12-11T17:03:39.766Z,-1.17
2022-12-11T17:06:07.926Z,-1.19
2022-12-11T17:08:35.084Z,-1.20
2022-12-11T17:11:05.726Z,-1.21
2022-12-11T17:13:35.991Z,-1.20
2022-12-11T17:16:12.576Z,-1.21
2022-12-11T17:18:40.578Z,-1.22
2022-12-11T17:21:11.687Z,-1.21
2022-12-11T17:23:39.687Z,-1.26
2022-12-11T17:26:09.706Z,-1.28
2022-12-11T17:28:38.727Z,-1.32
2022-12-11T17:31:08.562Z,-1.35
2022-12-11T17:33:36.736Z,-1.38
2022-12-11T17:36:06.016Z,-1.44
2022-12-11T17:38:33.715Z,-1.48
2022-12-11T17:41:02.471Z,-1.47
2022-12-11T17:43:29.779Z,-1.46
2022-12-11T17:45:57.778Z,-1.47
2022-12-11T17:48:24.715Z,-1.48
2022-12-11T17:50:52.962Z,-1.52
2022-12-11T17:53:21.622Z,-1.52
2022-12-11T17:55:49.983Z,-1.54
2022-12-11T17:58:19.314Z,-1.56
2022-12-11T18:00:50.926Z,-1.58
2022-12-11T18:03:18.325Z,-1.59
2022-12-11T18:05:48.744Z,-1.60
2022-12-11T18:08:24.565Z,-1.62
2022-12-11T18:10:53.598Z,-1.63
2022-12-11T18:13:22.164Z,-1.66
2022-12-11T18:16:05.447Z,-1.66
2022-12-11T18:18:33.039Z,-1.66
2022-12-11T18:21:01.063Z,-1.67
2022-12-11T18:26:12.216Z,-1.65
2022-12-11T18:28:39.405Z,-1.63
2022-12-11T18:31:08.579Z,-1.63
2022-12-11T18:33:40.648Z,-1.64
2022-12-11T18:36:09.505Z,-1.64
2022-12-11T18:38:38.867Z,-1.64
2022-12-11T18:41:08.275Z,-1.66
2022-12-11T18:43:35.666Z,-1.65
2022-12-11T18:46:08.407Z,-1.64
2022-12-11T18:48:37.360Z,-1.65
2022-12-11T18:51:14.421Z,-1.63
2022-12-11T18:53:42.343Z,-1.64
2022-12-11T18:56:16.625Z,-1.64
2022-12-11T18:58:46.772Z,-1.66
2022-12-11T19:01:27.317Z,-1.68
2022-12-11T19:04:02.047Z,-1.67
2022-12-11T19:06:31.609Z,-1.69
2022-12-11T19:09:00.124Z,-1.69
2022-12-11T19:11:30.505Z,-1.69
2022-12-11T19:13:59.470Z,-1.68
2022-12-11T19:16:31.641Z,-1.70
2022-12-11T19:19:03.663Z,-1.72
2022-12-11T19:21:31.458Z,-1.72
2022-12-11T19:23:59.189Z,-1.70
2022-12-11T19:26:27.232Z,-1.70
2022-12-11T19:28:55.018Z,-1.70
2022-12-11T19:31:23.916Z,-1.68
2022-12-11T19:33:51.882Z,-1.67
2022-12-11T19:36:22.516Z,-1.65
2022-12-11T19:38:51.626Z,-1.69
2022-12-11T19:41:24.946Z,-1.69
2022-12-11T19:43:55.514Z,-1.70
2022-12-11T19:46:26.139Z,-1.69
2022-12-11T19:48:55.305Z,-1.69
2022-12-11T19:51:26.779Z,-1.69
2022-12-11T19:53:55.112Z,-1.67
2022-12-11T19:56:22.927Z,-1.67
2022-12-11T19:58:54.222Z,-1.64
2022-12-11T20:01:26.663Z,-1.64
2022-12-11T20:03:56.120Z,-1.62
2022-12-11T20:06:27.498Z,-1.64
2022-12-11T20:08:56.931Z,-1.61
2022-12-11T20:11:26.033Z,-1.62
2022-12-11T20:13:53.813Z,-1.62
2022-12-11T20:16:46.175Z,-1.62
2022-12-11T20:19:14.942Z,-1.61
2022-12-11T20:21:42.507Z,-1.59
2022-12-11T20:24:10.854Z,-1.58
2022-12-11T20:26:38.975Z,-1.60
2022-12-11T20:29:08.758Z,-1.57
2022-12-11T20:31:37.809Z,-1.56
2022-12-11T20:34:06.544Z,-1.55
2022-12-11T20:36:34.207Z,-1.55
2022-12-11T20:39:02.028Z,-1.54
2022-12-11T20:41:29.784Z,-1.54
2022-12-11T20:44:00.013Z,-1.55
2022-12-11T20:46:28.171Z,-1.55
2022-12-11T20:48:57.731Z,-1.56
2022-12-11T20:51:26.456Z,-1.55
2022-12-11T20:53:56.243Z,-1.52
2022-12-11T20:56:25.407Z,-1.51
2022-12-11T20:58:56.709Z,-1.51
2022-12-11T21:01:29.701Z,-1.51
2022-12-11T21:03:58.681Z,-1.53
2022-12-11T21:06:27.488Z,-1.54
2022-12-11T21:08:55.181Z,-1.53
2022-12-11T21:11:22.710Z,-1.53
2022-12-11T21:13:51.475Z,-1.54
2022-12-11T21:16:19.916Z,-1.54
2022-12-11T21:18:47.769Z,-1.56
2022-12-11T21:21:15.952Z,-1.56
2022-12-11T21:23:43.379Z,-1.57
2022-12-11T21:26:10.515Z,-1.57
2022-12-11T21:28:38.937Z,-1.59
2022-12-11T21:31:09.166Z,-1.60
2022-12-11T21:33:36.375Z,-1.60
2022-12-11T21:36:06.744Z,-1.62
2022-12-11T21:38:33.945Z,-1.59
2022-12-11T21:41:12.001Z,-1.60
2022-12-11T21:43:59.593Z,-1.59
2022-12-11T21:46:28.388Z,-1.61
2022-12-11T21:48:55.413Z,-1.61
2022-12-11T21:51:40.259Z,-1.62
2022-12-11T21:54:12.893Z,-1.62
2022-12-11T21:56:40.555Z,-1.63
2022-12-11T21:59:07.913Z,-1.62
2022-12-11T22:01:38.280Z,-1.62
2022-12-11T22:04:07.486Z,-1.62
2022-12-11T22:06:34.397Z,-1.62
2022-12-11T22:09:01.326Z,-1.62
2022-12-11T22:11:32.466Z,-1.62
2022-12-11T22:13:59.843Z,-1.60
2022-12-11T22:16:26.818Z,-1.62
2022-12-11T22:18:53.730Z,-1.63
2022-12-11T22:21:20.934Z,-1.63
2022-12-11T22:23:47.772Z,-1.65
2022-12-11T22:26:21.847Z,-1.66
2022-12-11T22:28:49.248Z,-1.69
2022-12-11T22:31:19.042Z,-1.70
2022-12-11T22:33:46.358Z,-1.71
2022-12-11T22:36:13.188Z,-1.72
2022-12-11T22:38:40.149Z,-1.73
2022-12-11T22:41:20.467Z,-1.75
2022-12-11T22:43:49.072Z,-1.78
2022-12-11T22:46:17.244Z,-1.80
2022-12-11T22:48:44.110Z,-1.81
2022-12-11T22:51:11.978Z,-1.81
2022-12-11T22:53:39.102Z,-1.81
2022-12-11T22:56:07.751Z,-1.80
2022-12-11T22:58:34.824Z,-1.81
2022-12-11T23:01:02.830Z,-1.81
2022-12-11T23:03:29.696Z,-1.79
2022-12-11T23:05:58.794Z,-1.82
2022-12-11T23:08:29.069Z,-1.83
2022-12-11T23:10:56.146Z,-1.85
2022-12-11T23:13:22.902Z,-1.88
2022-12-11T23:15:49.761Z,-1.89
2022-12-11T23:18:16.487Z,-1.90
2022-12-11T23:20:45.425Z,-1.94
2022-12-11T23:23:12.371Z,-1.95
2022-12-11T23:25:39.225Z,-1.97
2022-12-11T23:28:06.235Z,-1.97
2022-12-11T23:30:33.058Z,-1.98
2022-12-11T23:32:59.862Z,-2.01
2022-12-11T23:35:26.719Z,-2.02
2022-12-11T23:37:53.496Z,-2.02
2022-12-11T23:40:20.290Z,-2.02
2022-12-11T23:42:47.155Z,-2.01
2022-12-11T23:45:14.313Z,-2.02
2022-12-11T23:47:41.395Z,-2.01
2022-12-11T23:50:08.677Z,-2.00
2022-12-11T23:52:35.694Z,-1.98
2022-12-11T23:55:02.526Z,-1.98
2022-12-11T23:57:29.477Z,-1.97
2022-12-11T23:59:56.217Z,-1.97
